createdAt,value
2023-02-15T00:00:18.409Z,87.38
2023-02-15T00:01:21.245Z,87.45
2023-02-15T00:02:23.165Z,87.30
2023-02-15T00:03:26.144Z,87.62
2023-02-15T00:04:47.055Z,87.44
2023-02-15T00:05:49.014Z,87.58
2023-02-15T00:06:52.006Z,87.34
2023-02-15T00:07:53.922Z,87.23
2023-02-15T00:08:57.189Z,87.33
2023-02-15T00:10:00.389Z,87.79
2023-02-15T00:11:07.765Z,87.97
2023-02-15T00:12:10.099Z,87.52
2023-02-15T00:13:13.245Z,87.81
2023-02-15T00:14:17.113Z,88.04
2023-02-15T00:15:19.881Z,87.92
2023-02-15T00:16:21.695Z,87.64
2023-02-15T00:17:24.602Z,87.72
2023-02-15T00:18:26.483Z,88.23
2023-02-15T00:19:29.284Z,88.09
2023-02-15T00:20:31.213Z,87.86
2023-02-15T00:21:35.055Z,87.74
2023-02-15T00:22:37.784Z,87.59
2023-02-15T00:23:39.805Z,88.09
2023-02-15T00:24:42.793Z,87.98
2023-02-15T00:25:46.002Z,88.16
2023-02-15T00:27:07.381Z,88.09
2023-02-15T00:28:09.244Z,88.35
2023-02-15T00:29:13.325Z,88.17
2023-02-15T00:30:16.274Z,88.56
2023-02-15T00:31:18.393Z,88.59
2023-02-15T00:32:21.230Z,88.40
2023-02-15T00:33:25.963Z,88.40
2023-02-15T00:34:30.149Z,88.68
2023-02-15T00:35:32.402Z,88.74
2023-02-15T00:36:35.511Z,88.47
2023-02-15T00:37:37.357Z,88.31
2023-02-15T00:38:58.829Z,88.71
2023-02-15T00:40:20.172Z,88.66
2023-02-15T00:41:44.392Z,89.05
2023-02-15T00:42:47.927Z,88.80
2023-02-15T00:43:50.508Z,88.65
2023-02-15T00:44:53.547Z,88.86
2023-02-15T00:45:56.479Z,88.57
2023-02-15T00:46:59.285Z,88.60
2023-02-15T00:48:01.140Z,88.59
2023-02-15T00:49:04.228Z,88.54
2023-02-15T00:50:07.445Z,88.62
2023-02-15T00:51:10.303Z,88.88
2023-02-15T00:52:13.172Z,88.81
2023-02-15T00:53:14.935Z,88.67
2023-02-15T00:54:18.181Z,88.67
2023-02-15T00:55:19.964Z,88.64
2023-02-15T00:56:23.440Z,88.68
2023-02-15T00:57:27.270Z,88.45
2023-02-15T00:58:30.141Z,88.54
2023-02-15T00:59:32.942Z,88.48
2023-02-15T01:00:34.868Z,88.52
2023-02-15T01:01:37.691Z,88.12
2023-02-15T01:02:39.549Z,88.30
2023-02-15T01:03:42.479Z,88.35
2023-02-15T01:04:44.953Z,88.34
2023-02-15T01:05:49.441Z,88.51
2023-02-15T01:06:51.299Z,88.59
2023-02-15T01:07:54.701Z,88.40
2023-02-15T01:08:56.528Z,88.10
2023-02-15T01:09:59.348Z,88.24
2023-02-15T01:11:05.168Z,88.21
2023-02-15T01:12:07.947Z,88.19
2023-02-15T01:13:11.403Z,88.12
2023-02-15T01:14:15.504Z,88.26
2023-02-15T01:15:17.501Z,87.81
2023-02-15T01:16:20.419Z,87.95
2023-02-15T01:17:22.296Z,87.88
2023-02-15T01:18:25.116Z,87.80
2023-02-15T01:19:27.462Z,87.85
2023-02-15T01:20:30.911Z,87.49
2023-02-15T01:21:35.312Z,87.55
2023-02-15T01:22:39.599Z,87.48
2023-02-15T01:23:42.041Z,87.53
2023-02-15T01:24:44.973Z,87.56
2023-02-15T01:25:47.184Z,87.43
2023-02-15T01:26:49.934Z,87.25
2023-02-15T01:27:51.772Z,87.19
2023-02-15T01:28:55.940Z,87.34
2023-02-15T01:29:58.718Z,87.50
2023-02-15T01:31:01.565Z,87.22
2023-02-15T01:32:03.930Z,87.16
2023-02-15T01:33:06.812Z,87.04
2023-02-15T01:34:08.731Z,87.19
2023-02-15T01:35:12.532Z,86.92
2023-02-15T01:36:14.464Z,87.32
2023-02-15T01:37:17.271Z,86.65
2023-02-15T01:38:19.459Z,87.04
2023-02-15T01:39:22.224Z,86.75
2023-02-15T01:40:43.196Z,86.75
2023-02-15T01:42:07.355Z,86.81
2023-02-15T01:43:12.910Z,86.66
2023-02-15T01:44:49.959Z,86.57
2023-02-15T01:45:51.843Z,86.57
2023-02-15T01:46:55.350Z,86.70
2023-02-15T01:48:00.062Z,86.68
2023-02-15T01:49:05.412Z,86.41
2023-02-15T01:50:11.506Z,86.50
2023-02-15T01:51:15.216Z,86.70
2023-02-15T01:52:18.766Z,86.59
2023-02-15T01:53:24.105Z,86.20
2023-02-15T01:54:28.989Z,86.39
2023-02-15T01:55:36.181Z,86.32
2023-02-15T01:56:39.981Z,86.51
2023-02-15T01:57:43.085Z,86.24
2023-02-15T01:58:45.419Z,86.59
2023-02-15T01:59:53.745Z,86.55
2023-02-15T02:01:00.272Z,86.71
2023-02-15T02:02:05.403Z,86.56
2023-02-15T02:03:07.277Z,86.25
2023-02-15T02:04:13.785Z,86.14
2023-02-15T02:05:16.076Z,86.17
2023-02-15T02:06:21.886Z,85.98
2023-02-15T02:07:25.444Z,85.84
2023-02-15T02:08:28.294Z,86.07
2023-02-15T02:09:30.590Z,85.89
2023-02-15T02:10:33.401Z,86.22
2023-02-15T02:11:36.335Z,85.99
2023-02-15T02:12:40.874Z,85.66
2023-02-15T02:13:45.576Z,85.78
2023-02-15T02:14:50.544Z,85.98
2023-02-15T02:15:57.697Z,86.01
2023-02-15T02:17:07.538Z,86.06
2023-02-15T02:18:19.819Z,85.93
2023-02-15T02:19:50.504Z,86.43
2023-02-15T02:21:02.828Z,85.99
2023-02-15T02:22:44.309Z,86.19
2023-02-15T02:23:56.139Z,86.38
2023-02-15T02:25:30.580Z,86.32
2023-02-15T02:27:05.356Z,86.74
2023-02-15T02:28:20.519Z,86.57
2023-02-15T02:29:34.737Z,86.76
2023-02-15T02:30:51.795Z,86.98
2023-02-15T02:32:11.777Z,86.60
2023-02-15T02:33:28.390Z,86.81
2023-02-15T02:34:31.748Z,86.56
2023-02-15T02:35:39.494Z,86.36
2023-02-15T02:36:47.542Z,86.50
2023-02-15T02:37:56.499Z,86.94
2023-02-15T02:39:08.984Z,86.63
2023-02-15T02:40:15.635Z,86.55
2023-02-15T02:41:27.294Z,86.81
2023-02-15T02:42:37.201Z,86.47
2023-02-15T02:43:43.357Z,86.94
2023-02-15T02:44:49.840Z,86.83
2023-02-15T02:45:54.543Z,86.63
2023-02-15T02:47:00.469Z,86.74
2023-02-15T02:48:08.834Z,86.67
2023-02-15T02:49:13.584Z,86.40
2023-02-15T02:50:17.767Z,86.32
2023-02-15T02:51:23.036Z,86.46
2023-02-15T02:52:39.922Z,86.22
2023-02-15T02:53:42.717Z,86.52
2023-02-15T02:54:44.540Z,86.28
2023-02-15T02:55:49.667Z,86.69
2023-02-15T02:56:52.193Z,86.54
2023-02-15T02:57:57.869Z,87.00
2023-02-15T02:59:03.626Z,86.47
2023-02-15T03:00:09.460Z,86.65
2023-02-15T03:01:14.559Z,86.47
2023-02-15T03:02:21.140Z,86.74
2023-02-15T03:03:27.428Z,86.48
2023-02-15T03:04:34.181Z,86.56
2023-02-15T03:05:39.756Z,86.91
2023-02-15T03:06:44.551Z,86.76
2023-02-15T03:07:50.094Z,86.79
2023-02-15T03:08:57.576Z,86.64
2023-02-15T03:10:02.086Z,86.82
2023-02-15T03:11:07.269Z,86.74
2023-02-15T03:12:10.539Z,86.80
2023-02-15T03:13:17.418Z,86.72
2023-02-15T03:14:19.963Z,86.90
2023-02-15T03:15:26.107Z,86.88
2023-02-15T03:16:29.648Z,86.79
2023-02-15T03:17:33.270Z,86.77
2023-02-15T03:18:38.060Z,87.15
2023-02-15T03:19:42.576Z,86.64
2023-02-15T03:20:45.135Z,87.09
2023-02-15T03:21:58.447Z,86.94
2023-02-15T03:23:02.813Z,87.04
2023-02-15T03:24:10.297Z,87.12
2023-02-15T03:25:14.691Z,87.20
2023-02-15T03:26:18.182Z,86.89
2023-02-15T03:27:24.851Z,86.95
2023-02-15T03:28:30.568Z,86.92
2023-02-15T03:29:35.410Z,86.92
2023-02-15T03:30:39.292Z,87.27
2023-02-15T03:31:44.189Z,87.42
2023-02-15T03:32:47.575Z,87.07
2023-02-15T03:33:55.943Z,87.15
2023-02-15T03:34:59.138Z,87.23
2023-02-15T03:36:04.539Z,86.86
2023-02-15T03:37:10.948Z,86.92
2023-02-15T03:38:16.506Z,87.18
2023-02-15T03:39:21.133Z,87.02
2023-02-15T03:40:43.703Z,87.47
2023-02-15T03:41:52.507Z,87.33
2023-02-15T03:42:59.055Z,87.24
2023-02-15T03:44:03.237Z,86.93
2023-02-15T03:45:08.688Z,87.15
2023-02-15T03:46:15.312Z,87.34
2023-02-15T03:47:20.036Z,87.14
2023-02-15T03:48:24.194Z,87.50
2023-02-15T03:49:30.698Z,87.62
2023-02-15T03:50:55.596Z,87.57
2023-02-15T03:51:59.777Z,87.02
2023-02-15T03:53:03.149Z,87.38
2023-02-15T03:54:08.934Z,87.82
2023-02-15T03:55:11.895Z,87.09
2023-02-15T03:56:13.731Z,87.65
2023-02-15T03:57:38.170Z,87.13
2023-02-15T03:58:58.465Z,87.29
2023-02-15T04:00:19.777Z,87.69
2023-02-15T04:01:59.032Z,87.78
2023-02-15T04:03:22.629Z,87.43
2023-02-15T04:04:27.464Z,87.38
2023-02-15T04:05:30.204Z,88.03
2023-02-15T04:06:33.331Z,87.67
2023-02-15T04:07:36.495Z,88.00
2023-02-15T04:08:59.095Z,87.70
2023-02-15T04:10:19.628Z,88.02
2023-02-15T04:11:21.465Z,88.13
2023-02-15T04:12:24.212Z,88.02
2023-02-15T04:13:32.970Z,87.93
2023-02-15T04:14:53.625Z,87.66
2023-02-15T04:16:04.857Z,87.61
2023-02-15T04:17:08.925Z,87.98
2023-02-15T04:18:11.872Z,88.12
2023-02-15T04:19:32.312Z,88.28
2023-02-15T04:20:52.788Z,87.98
2023-02-15T04:22:14.114Z,87.89
2023-02-15T04:23:34.229Z,88.30
2023-02-15T04:24:54.571Z,88.17
2023-02-15T04:25:57.722Z,88.29
2023-02-15T04:27:00.286Z,87.81
2023-02-15T04:28:03.014Z,88.13
2023-02-15T04:29:05.079Z,88.41
2023-02-15T04:30:09.211Z,88.11
2023-02-15T04:31:12.089Z,88.09
2023-02-15T04:32:14.082Z,88.41
2023-02-15T04:33:16.901Z,88.59
2023-02-15T04:34:18.957Z,88.32
2023-02-15T04:35:21.815Z,88.02
2023-02-15T04:36:23.635Z,87.97
2023-02-15T04:37:27.989Z,88.10
2023-02-15T04:38:29.837Z,87.95
2023-02-15T04:39:33.122Z,88.21
2023-02-15T04:40:35.005Z,88.05
2023-02-15T04:41:37.876Z,88.18
2023-02-15T04:42:40.126Z,87.93
2023-02-15T04:43:42.918Z,87.74
2023-02-15T04:44:44.790Z,87.77
2023-02-15T04:45:50.999Z,88.12
2023-02-15T04:46:53.062Z,88.13
2023-02-15T04:47:55.910Z,87.98
2023-02-15T04:48:57.741Z,88.29
2023-02-15T04:50:00.505Z,88.06
2023-02-15T04:51:06.367Z,88.37
2023-02-15T04:52:09.088Z,88.14
2023-02-15T04:53:13.490Z,88.33
2023-02-15T04:54:15.288Z,88.34
2023-02-15T04:55:18.161Z,88.18
2023-02-15T04:56:20.419Z,88.66
2023-02-15T04:57:23.624Z,88.19
2023-02-15T04:58:25.440Z,88.15
2023-02-15T04:59:28.195Z,88.09
2023-02-15T05:00:30.983Z,88.38
2023-02-15T05:01:32.782Z,88.63
2023-02-15T05:02:35.512Z,88.27
2023-02-15T05:03:37.792Z,88.64
2023-02-15T05:04:40.516Z,88.21
2023-02-15T05:05:43.311Z,88.46
2023-02-15T05:06:45.207Z,88.43
2023-02-15T05:07:48.021Z,88.47
2023-02-15T05:08:51.463Z,88.32
2023-02-15T05:09:54.229Z,88.71
2023-02-15T05:10:56.156Z,88.55
2023-02-15T05:11:59.049Z,88.81
2023-02-15T05:13:00.918Z,88.34
2023-02-15T05:14:03.664Z,88.93
2023-02-15T05:15:05.947Z,88.75
2023-02-15T05:16:08.797Z,88.64
2023-02-15T05:17:10.643Z,88.79
2023-02-15T05:18:13.377Z,88.64
2023-02-15T05:19:15.317Z,88.65
2023-02-15T05:20:19.512Z,89.09
2023-02-15T05:21:21.264Z,88.82
2023-02-15T05:22:24.126Z,88.58
2023-02-15T05:23:25.977Z,88.77
2023-02-15T05:24:47.507Z,89.24
2023-02-15T05:26:08.252Z,89.20
2023-02-15T05:27:30.017Z,89.21
2023-02-15T05:28:32.856Z,88.99
2023-02-15T05:29:34.702Z,89.42
2023-02-15T05:30:37.638Z,89.25
2023-02-15T05:31:39.800Z,89.04
2023-02-15T05:32:42.904Z,88.98
2023-02-15T05:33:45.322Z,88.86
2023-02-15T05:34:48.158Z,89.18
2023-02-15T05:35:49.946Z,89.33
2023-02-15T05:36:52.823Z,89.10
2023-02-15T05:37:54.946Z,89.38
2023-02-15T05:38:57.886Z,89.32
2023-02-15T05:40:01.029Z,89.40
2023-02-15T05:41:03.939Z,88.90
2023-02-15T05:42:05.802Z,88.96
2023-02-15T05:43:08.622Z,89.11
2023-02-15T05:44:10.678Z,89.32
2023-02-15T05:45:13.466Z,89.04
2023-02-15T05:46:15.428Z,89.55
2023-02-15T05:47:18.334Z,89.41
2023-02-15T05:48:22.335Z,89.32
2023-02-15T05:49:24.138Z,89.42
2023-02-15T05:50:27.093Z,89.25
2023-02-15T05:51:28.944Z,89.19
2023-02-15T05:52:31.753Z,89.48
2023-02-15T05:53:35.721Z,89.38
2023-02-15T05:54:38.469Z,89.21
2023-02-15T05:55:41.833Z,89.15
2023-02-15T05:56:44.854Z,89.32
2023-02-15T05:57:46.626Z,89.38
2023-02-15T05:58:49.448Z,89.28
2023-02-15T05:59:51.303Z,89.32
2023-02-15T06:00:54.105Z,88.89
2023-02-15T06:01:55.868Z,89.23
2023-02-15T06:02:59.040Z,89.13
2023-02-15T06:04:01.837Z,89.57
2023-02-15T06:05:03.852Z,89.19
2023-02-15T06:06:07.369Z,89.47
2023-02-15T06:07:09.144Z,89.18
2023-02-15T06:08:11.971Z,89.39
2023-02-15T06:09:14.964Z,89.42
2023-02-15T06:10:17.951Z,89.40
2023-02-15T06:11:21.378Z,89.57
2023-02-15T06:12:24.128Z,89.51
2023-02-15T06:13:26.480Z,89.37
2023-02-15T06:14:29.548Z,89.11
2023-02-15T06:15:31.401Z,89.20
2023-02-15T06:16:34.162Z,89.64
2023-02-15T06:17:35.969Z,89.39
2023-02-15T06:18:38.806Z,89.35
2023-02-15T06:19:40.647Z,89.63
2023-02-15T06:20:43.394Z,89.83
2023-02-15T06:21:45.217Z,89.43
2023-02-15T06:22:48.270Z,89.18
2023-02-15T06:23:51.049Z,89.50
2023-02-15T06:24:54.552Z,89.45
2023-02-15T06:25:57.392Z,89.53
2023-02-15T06:27:00.512Z,89.18
2023-02-15T06:28:03.601Z,89.37
2023-02-15T06:29:06.491Z,89.54
2023-02-15T06:30:09.754Z,89.32
2023-02-15T06:31:12.629Z,89.72
2023-02-15T06:32:14.492Z,89.33
2023-02-15T06:33:17.265Z,89.50
2023-02-15T06:34:19.118Z,89.25
2023-02-15T06:35:22.940Z,89.70
2023-02-15T06:36:25.788Z,89.52
2023-02-15T06:37:27.671Z,89.70
2023-02-15T06:38:30.386Z,89.77
2023-02-15T06:39:51.636Z,89.87
2023-02-15T06:40:53.877Z,89.67
2023-02-15T06:41:56.689Z,89.90
2023-02-15T06:42:59.823Z,89.53
2023-02-15T06:44:02.723Z,89.92
2023-02-15T06:45:05.374Z,89.73
2023-02-15T06:46:09.378Z,89.79
2023-02-15T06:47:11.673Z,89.69
2023-02-15T06:48:14.542Z,89.67
2023-02-15T06:49:17.350Z,89.53
2023-02-15T06:50:19.862Z,89.54
2023-02-15T06:51:22.632Z,89.61
2023-02-15T06:52:24.598Z,89.44
2023-02-15T06:53:27.456Z,89.34
2023-02-15T06:54:29.260Z,89.59
2023-02-15T06:55:32.146Z,89.77
2023-02-15T06:56:53.666Z,89.63
2023-02-15T06:57:56.532Z,89.83
2023-02-15T06:59:00.690Z,89.66
2023-02-15T07:00:05.731Z,89.39
2023-02-15T07:01:09.362Z,89.92
2023-02-15T07:02:13.535Z,89.56
2023-02-15T07:03:16.755Z,89.60
2023-02-15T07:04:19.702Z,89.67
2023-02-15T07:05:21.585Z,89.45
2023-02-15T07:06:24.369Z,89.15
2023-02-15T07:07:27.622Z,89.35
2023-02-15T07:08:29.800Z,89.13
2023-02-15T07:09:32.532Z,89.27
2023-02-15T07:10:34.638Z,89.25
2023-02-15T07:11:54.656Z,89.45
2023-02-15T07:12:57.480Z,89.32
2023-02-15T07:14:00.670Z,89.59
2023-02-15T07:15:07.692Z,88.85
2023-02-15T07:16:09.698Z,89.29
2023-02-15T07:17:32.868Z,88.92
2023-02-15T07:18:35.278Z,88.85
2023-02-15T07:19:37.511Z,89.04
2023-02-15T07:20:42.563Z,89.33
2023-02-15T07:21:46.386Z,89.33
2023-02-15T07:22:49.730Z,89.35
2023-02-15T07:23:52.963Z,89.10
2023-02-15T07:24:55.798Z,89.37
2023-02-15T07:25:59.192Z,88.79
2023-02-15T07:27:01.173Z,89.12
2023-02-15T07:28:05.867Z,89.39
2023-02-15T07:29:09.035Z,89.07
2023-02-15T07:30:13.746Z,89.18
2023-02-15T07:31:15.612Z,89.58
2023-02-15T07:32:18.473Z,89.09
2023-02-15T07:33:28.053Z,89.19
2023-02-15T07:34:31.129Z,89.15
2023-02-15T07:35:32.906Z,89.28
2023-02-15T07:36:36.459Z,89.16
2023-02-15T07:37:39.236Z,89.21
2023-02-15T07:38:43.434Z,89.35
2023-02-15T07:39:46.366Z,89.22
2023-02-15T07:40:48.427Z,88.75
2023-02-15T07:41:51.170Z,88.72
2023-02-15T07:42:55.886Z,88.52
2023-02-15T07:43:57.807Z,88.69
2023-02-15T07:45:01.982Z,88.86
2023-02-15T07:46:08.339Z,88.72
2023-02-15T07:47:10.203Z,88.45
2023-02-15T07:48:12.959Z,88.67
2023-02-15T07:49:16.647Z,89.03
2023-02-15T07:50:18.623Z,88.64
2023-02-15T07:51:21.409Z,88.39
2023-02-15T07:52:24.660Z,88.76
2023-02-15T07:53:27.462Z,88.43
2023-02-15T07:54:30.285Z,88.49
2023-02-15T07:55:33.186Z,88.68
2023-02-15T07:56:37.174Z,88.62
2023-02-15T07:57:42.251Z,88.57
2023-02-15T07:58:54.892Z,88.35
2023-02-15T07:59:57.655Z,88.34
2023-02-15T08:01:05.110Z,88.69
2023-02-15T08:02:10.535Z,88.09
2023-02-15T08:03:15.274Z,87.94
2023-02-15T08:04:19.058Z,88.67
2023-02-15T08:05:20.853Z,88.28
2023-02-15T08:06:24.683Z,88.55
2023-02-15T08:07:27.462Z,88.48
2023-02-15T08:08:32.641Z,88.54
2023-02-15T08:09:35.490Z,87.82
2023-02-15T08:10:55.607Z,87.82
2023-02-15T08:11:58.811Z,88.37
2023-02-15T08:13:00.566Z,88.21
2023-02-15T08:14:04.891Z,87.83
2023-02-15T08:15:08.241Z,87.85
2023-02-15T08:16:14.230Z,87.91
2023-02-15T08:17:17.150Z,87.71
2023-02-15T08:18:19.302Z,87.16
2023-02-15T08:19:24.153Z,87.49
2023-02-15T08:20:25.944Z,87.51
2023-02-15T08:21:30.058Z,87.44
2023-02-15T08:22:32.819Z,87.22
2023-02-15T08:23:34.553Z,87.07
2023-02-15T08:24:38.883Z,86.98
2023-02-15T08:25:40.770Z,86.90
2023-02-15T08:26:43.879Z,87.51
2023-02-15T08:27:47.145Z,86.74
2023-02-15T08:28:49.938Z,86.78
2023-02-15T08:29:52.836Z,86.69
2023-02-15T08:30:54.822Z,87.22
2023-02-15T08:32:03.050Z,87.28
2023-02-15T08:33:06.158Z,86.94
2023-02-15T08:34:10.051Z,86.66
2023-02-15T08:35:12.830Z,86.80
2023-02-15T08:36:18.086Z,86.85
2023-02-15T08:37:21.219Z,86.40
2023-02-15T08:38:23.078Z,86.37
2023-02-15T08:39:25.909Z,86.39
2023-02-15T08:40:28.125Z,86.57
2023-02-15T08:41:32.477Z,87.09
2023-02-15T08:42:34.288Z,87.23
2023-02-15T08:43:37.257Z,86.36
2023-02-15T08:44:40.013Z,86.16
2023-02-15T08:45:42.498Z,85.89
2023-02-15T08:47:05.294Z,86.01
2023-02-15T08:48:07.165Z,86.26
2023-02-15T08:49:10.679Z,85.52
2023-02-15T08:50:13.562Z,85.60
2023-02-15T08:51:16.589Z,85.31
2023-02-15T08:52:19.719Z,85.12
2023-02-15T08:53:22.589Z,85.40
2023-02-15T08:54:25.629Z,84.81
2023-02-15T08:55:27.771Z,85.37
2023-02-15T08:56:32.800Z,85.14
2023-02-15T08:57:35.688Z,84.65
2023-02-15T08:58:38.066Z,84.44
2023-02-15T08:59:40.995Z,83.98
2023-02-15T09:00:42.769Z,82.90
2023-02-15T09:01:46.462Z,84.20
2023-02-15T09:02:49.908Z,84.38
2023-02-15T09:03:54.606Z,84.77
2023-02-15T09:04:57.356Z,84.91
2023-02-15T09:06:00.173Z,83.87
2023-02-15T09:07:05.413Z,83.50
2023-02-15T09:08:07.173Z,83.05
2023-02-15T09:09:10.780Z,83.44
2023-02-15T09:10:12.628Z,83.12
2023-02-15T09:11:24.913Z,82.85
2023-02-15T09:12:27.755Z,82.62
2023-02-15T09:13:29.600Z,82.41
2023-02-15T09:14:32.769Z,82.52
2023-02-15T09:15:34.717Z,82.42
2023-02-15T09:16:39.326Z,82.18
2023-02-15T09:17:41.133Z,81.98
2023-02-15T09:18:45.595Z,82.12
2023-02-15T09:19:48.326Z,82.14
2023-02-15T09:20:50.187Z,82.31
2023-02-15T09:21:53.394Z,82.19
2023-02-15T09:22:58.085Z,81.98
2023-02-15T09:24:03.166Z,81.19
2023-02-15T09:25:05.638Z,81.49
2023-02-15T09:26:09.866Z,81.04
2023-02-15T09:27:13.093Z,81.21
2023-02-15T09:28:15.158Z,80.48
2023-02-15T09:29:19.258Z,80.85
2023-02-15T09:30:22.188Z,81.29
2023-02-15T09:31:26.406Z,80.88
2023-02-15T09:32:29.237Z,80.52
2023-02-15T09:33:31.050Z,81.25
2023-02-15T09:34:35.388Z,81.06
2023-02-15T09:35:37.145Z,81.04
2023-02-15T09:36:41.201Z,80.81
2023-02-15T09:37:43.004Z,80.95
2023-02-15T09:38:46.085Z,81.27
2023-02-15T09:39:49.252Z,81.74
2023-02-15T09:40:58.663Z,81.61
2023-02-15T09:42:35.019Z,80.63
2023-02-15T09:43:40.192Z,80.69
2023-02-15T09:45:00.856Z,81.55
2023-02-15T09:46:17.893Z,81.11
2023-02-15T09:47:32.423Z,81.15
2023-02-15T09:48:46.471Z,80.43
2023-02-15T09:49:56.987Z,80.49
2023-02-15T09:51:09.698Z,80.80
2023-02-15T09:52:22.338Z,80.07
2023-02-15T09:53:38.825Z,79.99
2023-02-15T09:54:50.471Z,79.96
2023-02-15T09:55:56.682Z,79.66
2023-02-15T09:57:01.681Z,79.54
2023-02-15T09:58:10.553Z,80.05
2023-02-15T09:59:18.832Z,80.32
2023-02-15T10:00:28.513Z,80.62
2023-02-15T10:01:55.548Z,79.71
2023-02-15T10:03:14.003Z,80.02
2023-02-15T10:04:28.066Z,79.40
2023-02-15T10:05:40.503Z,79.27
2023-02-15T10:06:46.237Z,79.67
2023-02-15T10:08:08.353Z,79.17
2023-02-15T10:09:18.562Z,79.54
2023-02-15T10:10:28.070Z,79.81
2023-02-15T10:11:40.657Z,79.81
2023-02-15T10:12:55.773Z,79.17
2023-02-15T10:14:08.400Z,79.33
2023-02-15T10:15:30.618Z,78.62
2023-02-15T10:16:41.425Z,78.71
2023-02-15T10:17:53.151Z,78.96
2023-02-15T10:18:58.288Z,79.06
2023-02-15T10:20:12.041Z,78.82
2023-02-15T10:21:24.807Z,79.00
2023-02-15T10:22:31.692Z,78.69
2023-02-15T10:23:49.581Z,79.00
2023-02-15T10:25:17.413Z,78.77
2023-02-15T10:26:23.711Z,77.82
2023-02-15T10:27:27.178Z,78.50
2023-02-15T10:28:33.917Z,78.52
2023-02-15T10:29:37.562Z,78.97
2023-02-15T10:30:45.840Z,78.95
2023-02-15T10:31:49.722Z,78.72
2023-02-15T10:33:01.494Z,78.49
2023-02-15T10:34:16.554Z,78.79
2023-02-15T10:35:24.444Z,77.76
2023-02-15T10:36:40.183Z,78.11
2023-02-15T10:37:54.802Z,77.76
2023-02-15T10:39:04.533Z,77.54
2023-02-15T10:40:12.939Z,78.04
2023-02-15T10:41:25.950Z,77.29
2023-02-15T10:42:32.927Z,77.23
2023-02-15T10:43:59.155Z,77.23
2023-02-15T10:45:15.607Z,77.21
2023-02-15T10:46:31.035Z,76.86
2023-02-15T10:47:58.586Z,77.43
2023-02-15T10:49:25.581Z,76.54
2023-02-15T10:50:43.063Z,76.97
2023-02-15T10:51:55.494Z,76.07
2023-02-15T10:53:09.878Z,76.65
2023-02-15T10:54:22.278Z,76.29
2023-02-15T10:55:35.926Z,75.98
2023-02-15T10:56:48.591Z,76.85
2023-02-15T10:57:54.542Z,76.79
2023-02-15T10:59:07.609Z,76.53
2023-02-15T11:00:13.952Z,76.24
2023-02-15T11:01:22.355Z,75.80
2023-02-15T11:02:31.886Z,76.15
2023-02-15T11:03:45.826Z,75.93
2023-02-15T11:04:55.197Z,75.61
2023-02-15T11:06:03.424Z,76.70
2023-02-15T11:07:10.030Z,76.88
2023-02-15T11:08:14.007Z,76.63
2023-02-15T11:09:19.165Z,76.18
2023-02-15T11:10:27.850Z,76.11
2023-02-15T11:11:33.499Z,75.69
2023-02-15T11:12:36.291Z,75.92
2023-02-15T11:13:40.685Z,75.75
2023-02-15T11:14:49.026Z,76.29
2023-02-15T11:15:53.656Z,75.73
2023-02-15T11:17:01.524Z,75.23
2023-02-15T11:18:10.454Z,75.75
2023-02-15T11:19:15.896Z,75.61
2023-02-15T11:20:21.909Z,75.22
2023-02-15T11:21:26.637Z,75.36
2023-02-15T11:22:31.178Z,74.78
2023-02-15T11:23:35.867Z,75.23
2023-02-15T11:24:43.522Z,74.85
2023-02-15T11:25:48.062Z,75.45
2023-02-15T11:26:57.640Z,74.92
2023-02-15T11:27:59.883Z,74.77
2023-02-15T11:29:08.890Z,74.93
2023-02-15T11:30:14.923Z,75.01
2023-02-15T11:31:19.963Z,74.92
2023-02-15T11:32:26.030Z,74.71
2023-02-15T11:33:31.776Z,74.62
2023-02-15T11:34:37.437Z,74.78
2023-02-15T11:35:47.432Z,74.13
2023-02-15T11:36:52.692Z,74.08
2023-02-15T11:38:01.098Z,74.16
2023-02-15T11:39:06.221Z,74.07
2023-02-15T11:40:19.000Z,73.70
2023-02-15T11:41:25.379Z,73.41
2023-02-15T11:42:28.665Z,73.45
2023-02-15T11:43:36.696Z,73.35
2023-02-15T11:44:40.689Z,74.05
2023-02-15T11:45:44.762Z,73.64
2023-02-15T11:46:48.010Z,73.24
2023-02-15T11:47:49.982Z,73.15
2023-02-15T11:48:52.732Z,72.34
2023-02-15T11:49:54.727Z,71.80
2023-02-15T11:50:58.389Z,72.72
2023-02-15T11:52:03.047Z,72.08
2023-02-15T11:53:11.550Z,72.28
2023-02-15T11:54:14.323Z,71.87
2023-02-15T11:55:22.256Z,71.66
2023-02-15T11:56:27.279Z,72.16
2023-02-15T11:57:34.719Z,71.88
2023-02-15T11:58:41.531Z,71.46
2023-02-15T11:59:48.060Z,70.97
2023-02-15T12:00:53.285Z,70.71
2023-02-15T12:01:56.041Z,71.40
2023-02-15T12:02:58.744Z,71.40
2023-02-15T12:04:04.169Z,70.97
2023-02-15T12:05:11.595Z,71.23
2023-02-15T12:06:19.662Z,70.94
2023-02-15T12:07:26.509Z,71.06
2023-02-15T12:08:37.083Z,71.40
2023-02-15T12:09:47.698Z,70.82
2023-02-15T12:10:58.897Z,70.66
2023-02-15T12:12:23.587Z,71.19
2023-02-15T12:13:25.396Z,70.68
2023-02-15T12:14:28.740Z,70.80
2023-02-15T12:15:31.839Z,70.81
2023-02-15T12:16:42.430Z,70.85
2023-02-15T12:17:52.125Z,70.51
2023-02-15T12:18:54.915Z,70.85
2023-02-15T12:19:59.508Z,70.54
2023-02-15T12:21:02.536Z,70.14
2023-02-15T12:22:09.281Z,70.23
2023-02-15T12:23:14.263Z,70.21
2023-02-15T12:24:20.586Z,69.20
2023-02-15T12:25:34.229Z,68.31
2023-02-15T12:26:37.480Z,69.06
2023-02-15T12:27:44.719Z,69.20
2023-02-15T12:28:53.031Z,69.12
2023-02-15T12:29:58.463Z,69.05
2023-02-15T12:31:02.656Z,68.94
2023-02-15T12:32:06.173Z,68.66
2023-02-15T12:33:17.427Z,69.28
2023-02-15T12:34:24.339Z,68.88
2023-02-15T12:35:29.885Z,69.43
2023-02-15T12:36:35.374Z,68.73
2023-02-15T12:37:37.269Z,68.83
2023-02-15T12:38:41.161Z,68.68
2023-02-15T12:39:54.176Z,68.45
2023-02-15T12:41:02.346Z,68.21
2023-02-15T12:42:10.566Z,67.86
2023-02-15T12:43:27.158Z,67.44
2023-02-15T12:44:30.869Z,66.72
2023-02-15T12:45:35.079Z,68.10
2023-02-15T12:46:38.440Z,67.15
2023-02-15T12:47:41.350Z,67.22
2023-02-15T12:48:44.108Z,66.49
2023-02-15T12:50:12.300Z,66.75
2023-02-15T12:51:17.158Z,67.04
2023-02-15T12:52:25.981Z,67.01
2023-02-15T12:53:34.138Z,65.61
2023-02-15T12:54:41.044Z,65.12
2023-02-15T12:55:54.386Z,66.43
2023-02-15T12:56:58.200Z,65.25
2023-02-15T12:58:14.875Z,65.89
2023-02-15T12:59:23.155Z,66.01
2023-02-15T13:00:32.835Z,65.87
2023-02-15T13:01:34.732Z,65.84
2023-02-15T13:02:43.701Z,64.93
2023-02-15T13:03:58.363Z,65.05
2023-02-15T13:05:14.667Z,64.69
2023-02-15T13:06:19.460Z,63.44
2023-02-15T13:07:22.634Z,63.20
2023-02-15T13:08:30.314Z,64.33
2023-02-15T13:09:40.512Z,63.48
2023-02-15T13:10:45.230Z,63.60
2023-02-15T13:11:48.546Z,64.10
2023-02-15T13:12:54.927Z,64.49
2023-02-15T13:14:00.491Z,63.07
2023-02-15T13:15:05.542Z,63.33
2023-02-15T13:16:12.158Z,63.74
2023-02-15T13:17:16.395Z,62.97
2023-02-15T13:18:22.078Z,61.66
2023-02-15T13:19:31.292Z,62.03
2023-02-15T13:20:37.302Z,61.54
2023-02-15T13:21:43.181Z,61.09
2023-02-15T13:22:48.084Z,61.36
2023-02-15T13:23:53.724Z,60.70
2023-02-15T13:24:58.061Z,60.95
2023-02-15T13:26:02.078Z,59.87
2023-02-15T13:27:14.917Z,60.54
2023-02-15T13:28:20.224Z,59.99
2023-02-15T13:29:24.383Z,58.79
2023-02-15T13:30:30.038Z,59.44
2023-02-15T13:31:33.622Z,59.19
2023-02-15T13:32:38.864Z,59.37
2023-02-15T13:33:46.337Z,58.31
2023-02-15T13:34:48.378Z,57.50
2023-02-15T13:35:58.716Z,58.26
2023-02-15T13:37:07.107Z,58.46
2023-02-15T13:38:20.286Z,58.62
2023-02-15T13:39:45.255Z,58.99
2023-02-15T13:40:52.747Z,57.41
2023-02-15T13:42:01.719Z,56.98
2023-02-15T13:43:12.899Z,56.96
2023-02-15T13:44:21.883Z,57.10
2023-02-15T13:45:35.736Z,55.84
2023-02-15T13:46:57.818Z,54.04
2023-02-15T13:48:03.061Z,55.63
2023-02-15T13:49:17.578Z,55.39
2023-02-15T13:50:34.065Z,55.33
2023-02-15T13:51:43.289Z,55.57
2023-02-15T13:52:50.654Z,54.81
2023-02-15T13:54:10.686Z,55.42
2023-02-15T13:55:28.804Z,55.66
2023-02-15T13:56:38.095Z,56.07
2023-02-15T13:57:55.693Z,55.70
2023-02-15T13:59:39.638Z,54.98
2023-02-15T14:00:48.091Z,55.44
2023-02-15T14:01:58.156Z,54.99
2023-02-15T14:03:22.410Z,52.93
2023-02-15T14:04:49.610Z,54.51
2023-02-15T14:06:02.505Z,55.14
2023-02-15T14:07:27.554Z,54.96
2023-02-15T14:08:43.232Z,55.14
2023-02-15T14:09:53.598Z,54.46
2023-02-15T14:10:59.677Z,54.30
2023-02-15T14:12:17.674Z,54.24
2023-02-15T14:13:42.424Z,54.23
2023-02-15T14:15:00.816Z,54.38
2023-02-15T14:16:06.412Z,54.63